sensor_id;sensor_type;location;lat;lon;timestamp;P1;durP1;ratioP1;P2;durP2;ratioP2
53115;SDS011;39010;48.088;7.954;2022-09-24T08:53:52;2.53;;;1.40;;
53115;SDS011;39010;48.088;7.954;2022-09-24T09:00:29;5.72;;;2.83;;
53115;SDS011;39010;48.088;7.954;2022-09-24T09:03:03;3.72;;;2.58;;
53115;SDS011;39010;48.088;7.954;2022-09-24T09:08:57;4.30;;;2.40;;
53115;SDS011;39010;48.088;7.954;2022-09-24T09:11:35;5.20;;;2.33;;
53115;SDS011;39010;48.088;7.954;2022-09-24T09:14:05;4.38;;;2.40;;
53115;SDS011;39010;48.088;7.954;2022-09-24T09:19:26;4.10;;;2.63;;
53115;SDS011;39010;48.088;7.954;2022-09-24T09:21:59;5.28;;;2.50;;
53115;SDS011;39010;48.088;7.954;2022-09-24T09:24:48;4.53;;;2.53;;
53115;SDS011;39010;48.088;7.954;2022-09-24T09:27:17;5.60;;;2.60;;
53115;SDS011;39010;48.088;7.954;2022-09-24T09:29:53;4.15;;;2.72;;
53115;SDS011;39010;48.088;7.954;2022-09-24T09:35:16;7.35;;;2.63;;
53115;SDS011;39010;48.088;7.954;2022-09-24T09:37:55;3.78;;;2.00;;
53115;SDS011;39010;48.088;7.954;2022-09-24T09:40:30;5.25;;;2.58;;
53115;SDS011;39010;48.088;7.954;2022-09-24T09:43:02;4.50;;;2.30;;
53115;SDS011;39010;48.088;7.954;2022-09-24T09:45:32;5.30;;;2.25;;
53115;SDS011;39010;48.088;7.954;2022-09-24T09:48:00;3.33;;;2.10;;
53115;SDS011;39010;48.088;7.954;2022-09-24T09:50:33;6.43;;;2.35;;
53115;SDS011;39010;48.088;7.954;2022-09-24T09:53:04;4.63;;;2.40;;
53115;SDS011;39010;48.088;7.954;2022-09-24T09:55:35;6.15;;;2.60;;
53115;SDS011;39010;48.088;7.954;2022-09-24T09:58:36;5.60;;;3.13;;
53115;SDS011;39010;48.088;7.954;2022-09-24T10:01:05;5.72;;;2.25;;
53115;SDS011;39010;48.088;7.954;2022-09-24T10:06:11;4.35;;;2.33;;
53115;SDS011;39010;48.088;7.954;2022-09-24T10:08:39;2.60;;;1.83;;
53115;SDS011;39010;48.088;7.954;2022-09-24T10:11:05;5.68;;;2.22;;
53115;SDS011;39010;48.088;7.954;2022-09-24T10:13:40;4.13;;;2.17;;
53115;SDS011;39010;48.088;7.954;2022-09-24T10:16:11;3.90;;;2.20;;
53115;SDS011;39010;48.088;7.954;2022-09-24T10:18:47;4.90;;;2.60;;
53115;SDS011;39010;48.088;7.954;2022-09-24T10:21:31;2.60;;;2.08;;
53115;SDS011;39010;48.088;7.954;2022-09-24T10:24:02;3.85;;;2.05;;
53115;SDS011;39010;48.088;7.954;2022-09-24T10:26:41;3.60;;;2.15;;
53115;SDS011;39010;48.088;7.954;2022-09-24T10:32:03;4.22;;;2.15;;
53115;SDS011;39010;48.088;7.954;2022-09-24T10:34:31;3.78;;;2.08;;
53115;SDS011;39010;48.088;7.954;2022-09-24T10:39:35;2.97;;;2.00;;
53115;SDS011;39010;48.088;7.954;2022-09-24T10:42:02;4.35;;;2.42;;
53115;SDS011;39010;48.088;7.954;2022-09-24T10:47:02;4.30;;;2.25;;
53115;SDS011;39010;48.088;7.954;2022-09-24T10:52:53;3.45;;;2.00;;
53115;SDS011;39010;48.088;7.954;2022-09-24T10:55:32;2.58;;;1.65;;
53115;SDS011;39010;48.088;7.954;2022-09-24T11:01:07;3.47;;;2.00;;
53115;SDS011;39010;48.088;7.954;2022-09-24T11:04:07;3.55;;;2.20;;
53115;SDS011;39010;48.088;7.954;2022-09-24T11:07:06;3.08;;;1.83;;
53115;SDS011;39010;48.088;7.954;2022-09-24T11:09:44;2.95;;;1.90;;
53115;SDS011;39010;48.088;7.954;2022-09-24T11:18:08;3.17;;;1.85;;
53115;SDS011;39010;48.088;7.954;2022-09-24T11:20:53;3.65;;;2.00;;
53115;SDS011;39010;48.088;7.954;2022-09-24T11:26:01;4.10;;;2.13;;
53115;SDS011;39010;48.088;7.954;2022-09-24T11:34:20;3.15;;;1.60;;
53115;SDS011;39010;48.088;7.954;2022-09-24T11:39:53;3.40;;;1.90;;
53115;SDS011;39010;48.088;7.954;2022-09-24T11:42:35;2.33;;;1.80;;
53115;SDS011;39010;48.088;7.954;2022-09-24T11:52:17;4.43;;;2.00;;
53115;SDS011;39010;48.088;7.954;2022-09-24T11:58:32;2.97;;;1.90;;
53115;SDS011;39010;48.088;7.954;2022-09-24T12:01:16;3.05;;;2.00;;
53115;SDS011;39010;48.088;7.954;2022-09-24T12:09:23;3.10;;;1.85;;
53115;SDS011;39010;48.088;7.954;2022-09-24T12:12:10;3.58;;;2.13;;
53115;SDS011;39010;48.088;7.954;2022-09-24T12:17:26;3.05;;;2.20;;
53115;SDS011;39010;48.088;7.954;2022-09-24T12:20:00;2.75;;;1.70;;
53115;SDS011;39010;48.088;7.954;2022-09-24T12:22:35;3.60;;;2.00;;
53115;SDS011;39010;48.088;7.954;2022-09-24T12:25:04;5.18;;;1.85;;
53115;SDS011;39010;48.088;7.954;2022-09-24T12:27:37;4.38;;;1.80;;
53115;SDS011;39010;48.088;7.954;2022-09-24T12:36:29;3.55;;;1.90;;
53115;SDS011;39010;48.088;7.954;2022-09-24T12:39:09;2.30;;;1.70;;
53115;SDS011;39010;48.088;7.954;2022-09-24T12:41:42;3.33;;;2.10;;
53115;SDS011;39010;48.088;7.954;2022-09-24T12:44:14;2.70;;;1.88;;
53115;SDS011;39010;48.088;7.954;2022-09-24T12:46:51;2.78;;;1.63;;
53115;SDS011;39010;48.088;7.954;2022-09-24T12:51:51;3.80;;;1.80;;
53115;SDS011;39010;48.088;7.954;2022-09-24T12:54:23;3.13;;;1.60;;
53115;SDS011;39010;48.088;7.954;2022-09-24T12:57:07;2.85;;;1.92;;
53115;SDS011;39010;48.088;7.954;2022-09-24T12:59:52;3.38;;;2.03;;
53115;SDS011;39010;48.088;7.954;2022-09-24T13:02:23;2.92;;;1.98;;
53115;SDS011;39010;48.088;7.954;2022-09-24T13:12:43;3.90;;;2.05;;
53115;SDS011;39010;48.088;7.954;2022-09-24T13:18:02;3.35;;;1.92;;
53115;SDS011;39010;48.088;7.954;2022-09-24T13:20:35;4.05;;;2.33;;
53115;SDS011;39010;48.088;7.954;2022-09-24T13:23:10;3.50;;;2.03;;
53115;SDS011;39010;48.088;7.954;2022-09-24T13:28:23;3.25;;;1.90;;
53115;SDS011;39010;48.088;7.954;2022-09-24T13:31:13;2.63;;;1.80;;
53115;SDS011;39010;48.088;7.954;2022-09-24T13:33:58;3.10;;;1.90;;
53115;SDS011;39010;48.088;7.954;2022-09-24T13:36:33;3.40;;;2.15;;
53115;SDS011;39010;48.088;7.954;2022-09-24T13:44:55;3.65;;;2.15;;
53115;SDS011;39010;48.088;7.954;2022-09-24T13:49:54;3.60;;;2.15;;
53115;SDS011;39010;48.088;7.954;2022-09-24T13:52:45;4.38;;;2.30;;
53115;SDS011;39010;48.088;7.954;2022-09-24T13:55:21;5.68;;;2.30;;
53115;SDS011;39010;48.088;7.954;2022-09-24T13:57:51;4.65;;;2.22;;
53115;SDS011;39010;48.088;7.954;2022-09-24T14:00:19;4.97;;;2.08;;
53115;SDS011;39010;48.088;7.954;2022-09-24T14:05:20;5.05;;;2.10;;
53115;SDS011;39010;48.088;7.954;2022-09-24T14:07:51;4.97;;;2.05;;
53115;SDS011;39010;48.088;7.954;2022-09-24T14:10:24;2.78;;;1.83;;
53115;SDS011;39010;48.088;7.954;2022-09-24T14:15:50;3.92;;;1.90;;
53115;SDS011;39010;48.088;7.954;2022-09-24T14:18:25;3.50;;;2.10;;
53115;SDS011;39010;48.088;7.954;2022-09-24T14:20:55;4.22;;;2.25;;
53115;SDS011;39010;48.088;7.954;2022-09-24T14:23:30;3.83;;;2.00;;
53115;SDS011;39010;48.088;7.954;2022-09-24T14:26:00;3.05;;;2.03;;
53115;SDS011;39010;48.088;7.954;2022-09-24T14:28:29;5.95;;;2.17;;
53115;SDS011;39010;48.088;7.954;2022-09-24T14:30:58;4.30;;;2.28;;
53115;SDS011;39010;48.088;7.954;2022-09-24T14:33:27;5.30;;;2.20;;
53115;SDS011;39010;48.088;7.954;2022-09-24T14:35:56;4.97;;;2.30;;
53115;SDS011;39010;48.088;7.954;2022-09-24T14:38:26;4.72;;;2.33;;
53115;SDS011;39010;48.088;7.954;2022-09-24T14:41:19;3.78;;;2.30;;
53115;SDS011;39010;48.088;7.954;2022-09-24T14:43:50;3.78;;;2.20;;
53115;SDS011;39010;48.088;7.954;2022-09-24T14:49:28;3.67;;;2.22;;
53115;SDS011;39010;48.088;7.954;2022-09-24T14:54:32;3.35;;;2.17;;
53115;SDS011;39010;48.088;7.954;2022-09-24T14:57:19;4.35;;;2.10;;
53115;SDS011;39010;48.088;7.954;2022-09-24T14:59:50;4.18;;;2.20;;
53115;SDS011;39010;48.088;7.954;2022-09-24T15:04:54;3.53;;;2.10;;
53115;SDS011;39010;48.088;7.954;2022-09-24T15:07:31;4.28;;;2.45;;
53115;SDS011;39010;48.088;7.954;2022-09-24T15:09:59;2.95;;;2.10;;
53115;SDS011;39010;48.088;7.954;2022-09-24T15:12:29;4.85;;;2.45;;
53115;SDS011;39010;48.088;7.954;2022-09-24T15:15:23;3.53;;;2.20;;
53115;SDS011;39010;48.088;7.954;2022-09-24T15:17:53;4.68;;;2.45;;
53115;SDS011;39010;48.088;7.954;2022-09-24T15:20:19;4.88;;;2.25;;
53115;SDS011;39010;48.088;7.954;2022-09-24T15:25:13;4.25;;;2.28;;
53115;SDS011;39010;48.088;7.954;2022-09-24T15:27:40;3.60;;;2.30;;
53115;SDS011;39010;48.088;7.954;2022-09-24T15:30:11;4.00;;;2.40;;
53115;SDS011;39010;48.088;7.954;2022-09-24T15:32:45;5.18;;;2.50;;
53115;SDS011;39010;48.088;7.954;2022-09-24T15:35:13;4.80;;;2.45;;
53115;SDS011;39010;48.088;7.954;2022-09-24T15:37:40;4.28;;;2.30;;
53115;SDS011;39010;48.088;7.954;2022-09-24T15:40:28;3.33;;;2.25;;
53115;SDS011;39010;48.088;7.954;2022-09-24T15:42:56;4.85;;;2.80;;
53115;SDS011;39010;48.088;7.954;2022-09-24T15:45:23;4.53;;;2.53;;
53115;SDS011;39010;48.088;7.954;2022-09-24T15:47:51;4.25;;;2.47;;
53115;SDS011;39010;48.088;7.954;2022-09-24T15:50:19;4.20;;;2.13;;
53115;SDS011;39010;48.088;7.954;2022-09-24T15:52:48;5.88;;;2.70;;
53115;SDS011;39010;48.088;7.954;2022-09-24T15:55:18;5.65;;;2.60;;
53115;SDS011;39010;48.088;7.954;2022-09-24T15:57:46;3.97;;;2.72;;
53115;SDS011;39010;48.088;7.954;2022-09-24T16:00:13;5.43;;;3.05;;
53115;SDS011;39010;48.088;7.954;2022-09-24T16:02:46;5.97;;;2.90;;
53115;SDS011;39010;48.088;7.954;2022-09-24T16:05:15;4.93;;;2.50;;
53115;SDS011;39010;48.088;7.954;2022-09-24T16:07:45;4.90;;;2.65;;
53115;SDS011;39010;48.088;7.954;2022-09-24T16:10:12;4.90;;;2.80;;
53115;SDS011;39010;48.088;7.954;2022-09-24T16:12:40;9.82;;;3.13;;
53115;SDS011;39010;48.088;7.954;2022-09-24T16:15:10;5.82;;;2.80;;
53115;SDS011;39010;48.088;7.954;2022-09-24T16:17:38;5.13;;;2.65;;
53115;SDS011;39010;48.088;7.954;2022-09-24T16:20:07;4.10;;;2.50;;
53115;SDS011;39010;48.088;7.954;2022-09-24T16:22:36;4.70;;;2.70;;
53115;SDS011;39010;48.088;7.954;2022-09-24T16:25:03;5.63;;;2.60;;
53115;SDS011;39010;48.088;7.954;2022-09-24T16:27:30;6.00;;;2.72;;
53115;SDS011;39010;48.088;7.954;2022-09-24T16:29:57;3.97;;;2.40;;
53115;SDS011;39010;48.088;7.954;2022-09-24T16:32:23;3.85;;;2.60;;
53115;SDS011;39010;48.088;7.954;2022-09-24T16:34:50;6.22;;;2.90;;
53115;SDS011;39010;48.088;7.954;2022-09-24T16:37:20;3.47;;;2.35;;
53115;SDS011;39010;48.088;7.954;2022-09-24T16:39:47;4.80;;;3.03;;
53115;SDS011;39010;48.088;7.954;2022-09-24T16:42:13;3.67;;;1.85;;
53115;SDS011;39010;48.088;7.954;2022-09-24T16:44:40;2.35;;;1.98;;
53115;SDS011;39010;48.088;7.954;2022-09-24T16:47:06;5.72;;;2.60;;
53115;SDS011;39010;48.088;7.954;2022-09-24T16:52:01;3.60;;;1.85;;
53115;SDS011;39010;48.088;7.954;2022-09-24T16:54:28;3.97;;;2.25;;
53115;SDS011;39010;48.088;7.954;2022-09-24T16:56:59;5.80;;;2.20;;
53115;SDS011;39010;48.088;7.954;2022-09-24T16:59:27;4.13;;;2.13;;
53115;SDS011;39010;48.088;7.954;2022-09-24T17:04:20;3.88;;;2.03;;
53115;SDS011;39010;48.088;7.954;2022-09-24T17:06:48;3.58;;;2.10;;
53115;SDS011;39010;48.088;7.954;2022-09-24T17:11:59;4.38;;;2.17;;
53115;SDS011;39010;48.088;7.954;2022-09-24T17:14:26;4.72;;;1.90;;
53115;SDS011;39010;48.088;7.954;2022-09-24T17:16:58;6.30;;;2.90;;
53115;SDS011;39010;48.088;7.954;2022-09-24T17:19:25;3.95;;;2.20;;
53115;SDS011;39010;48.088;7.954;2022-09-24T17:21:52;4.18;;;1.90;;
53115;SDS011;39010;48.088;7.954;2022-09-24T17:24:19;4.60;;;1.98;;
53115;SDS011;39010;48.088;7.954;2022-09-24T17:26:47;4.70;;;2.03;;
53115;SDS011;39010;48.088;7.954;2022-09-24T17:29:16;5.40;;;1.98;;
53115;SDS011;39010;48.088;7.954;2022-09-24T17:31:47;3.78;;;2.17;;
53115;SDS011;39010;48.088;7.954;2022-09-24T17:34:14;3.33;;;2.20;;
53115;SDS011;39010;48.088;7.954;2022-09-24T17:36:41;3.47;;;2.35;;
53115;SDS011;39010;48.088;7.954;2022-09-24T17:39:10;5.63;;;2.45;;
53115;SDS011;39010;48.088;7.954;2022-09-24T17:41:38;5.20;;;2.55;;
53115;SDS011;39010;48.088;7.954;2022-09-24T17:44:04;5.57;;;2.83;;
53115;SDS011;39010;48.088;7.954;2022-09-24T17:46:32;7.13;;;2.95;;
53115;SDS011;39010;48.088;7.954;2022-09-24T17:49:05;4.45;;;2.70;;
53115;SDS011;39010;48.088;7.954;2022-09-24T17:51:34;5.47;;;2.70;;
53115;SDS011;39010;48.088;7.954;2022-09-24T17:54:05;7.60;;;2.97;;
53115;SDS011;39010;48.088;7.954;2022-09-24T17:56:37;4.93;;;2.38;;
53115;SDS011;39010;48.088;7.954;2022-09-24T17:59:07;6.00;;;2.85;;
53115;SDS011;39010;48.088;7.954;2022-09-24T18:01:35;4.43;;;2.55;;
53115;SDS011;39010;48.088;7.954;2022-09-24T18:04:08;4.65;;;2.60;;
53115;SDS011;39010;48.088;7.954;2022-09-24T18:06:39;6.53;;;2.53;;
53115;SDS011;39010;48.088;7.954;2022-09-24T18:09:08;5.38;;;2.83;;
53115;SDS011;39010;48.088;7.954;2022-09-24T18:11:40;7.82;;;2.90;;
53115;SDS011;39010;48.088;7.954;2022-09-24T18:14:26;4.95;;;2.70;;
53115;SDS011;39010;48.088;7.954;2022-09-24T18:16:53;6.63;;;2.60;;
53115;SDS011;39010;48.088;7.954;2022-09-24T18:19:20;4.40;;;2.65;;
53115;SDS011;39010;48.088;7.954;2022-09-24T18:21:48;5.35;;;2.50;;
53115;SDS011;39010;48.088;7.954;2022-09-24T18:24:16;5.85;;;2.50;;
53115;SDS011;39010;48.088;7.954;2022-09-24T18:26:43;6.13;;;2.70;;
53115;SDS011;39010;48.088;7.954;2022-09-24T18:29:15;6.55;;;2.92;;
53115;SDS011;39010;48.088;7.954;2022-09-24T18:31:43;6.15;;;2.70;;
53115;SDS011;39010;48.088;7.954;2022-09-24T18:34:11;7.20;;;2.88;;
53115;SDS011;39010;48.088;7.954;2022-09-24T18:36:40;7.93;;;2.80;;
53115;SDS011;39010;48.088;7.954;2022-09-24T18:39:09;5.32;;;2.90;;
53115;SDS011;39010;48.088;7.954;2022-09-24T18:41:38;5.65;;;2.72;;
53115;SDS011;39010;48.088;7.954;2022-09-24T18:44:07;5.20;;;2.83;;
53115;SDS011;39010;48.088;7.954;2022-09-24T18:46:34;8.77;;;3.60;;
53115;SDS011;39010;48.088;7.954;2022-09-24T18:51:29;6.43;;;3.43;;
53115;SDS011;39010;48.088;7.954;2022-09-24T18:53:58;10.05;;;3.38;;
53115;SDS011;39010;48.088;7.954;2022-09-24T18:56:27;7.03;;;3.55;;
53115;SDS011;39010;48.088;7.954;2022-09-24T18:59:02;6.78;;;3.67;;
53115;SDS011;39010;48.088;7.954;2022-09-24T19:01:35;5.70;;;3.55;;
53115;SDS011;39010;48.088;7.954;2022-09-24T19:04:03;5.72;;;3.40;;
53115;SDS011;39010;48.088;7.954;2022-09-24T19:06:32;5.97;;;3.50;;
53115;SDS011;39010;48.088;7.954;2022-09-24T19:08:59;5.53;;;3.25;;
53115;SDS011;39010;48.088;7.954;2022-09-24T19:13:53;6.07;;;3.72;;
53115;SDS011;39010;48.088;7.954;2022-09-24T19:16:21;6.93;;;3.70;;
53115;SDS011;39010;48.088;7.954;2022-09-24T19:18:49;7.47;;;4.25;;
53115;SDS011;39010;48.088;7.954;2022-09-24T19:21:17;8.85;;;4.68;;
53115;SDS011;39010;48.088;7.954;2022-09-24T19:23:45;8.60;;;4.75;;
53115;SDS011;39010;48.088;7.954;2022-09-24T19:26:16;7.80;;;3.88;;
53115;SDS011;39010;48.088;7.954;2022-09-24T19:28:48;7.80;;;3.85;;
53115;SDS011;39010;48.088;7.954;2022-09-24T19:31:22;10.32;;;4.75;;
53115;SDS011;39010;48.088;7.954;2022-09-24T19:33:52;8.60;;;4.10;;
53115;SDS011;39010;48.088;7.954;2022-09-24T19:36:19;8.13;;;4.15;;
53115;SDS011;39010;48.088;7.954;2022-09-24T19:38:48;9.65;;;4.63;;
53115;SDS011;39010;48.088;7.954;2022-09-24T19:41:19;7.57;;;4.07;;
53115;SDS011;39010;48.088;7.954;2022-09-24T19:43:50;7.63;;;4.00;;
53115;SDS011;39010;48.088;7.954;2022-09-24T19:46:19;13.48;;;4.63;;
53115;SDS011;39010;48.088;7.954;2022-09-24T19:48:50;7.28;;;3.90;;
53115;SDS011;39010;48.088;7.954;2022-09-24T19:51:18;9.15;;;3.58;;
53115;SDS011;39010;48.088;7.954;2022-09-24T19:53:56;5.72;;;3.53;;
53115;SDS011;39010;48.088;7.954;2022-09-24T19:56:28;7.68;;;3.85;;
53115;SDS011;39010;48.088;7.954;2022-09-24T19:58:57;7.30;;;3.85;;
53115;SDS011;39010;48.088;7.954;2022-09-24T20:01:26;6.93;;;3.90;;
53115;SDS011;39010;48.088;7.954;2022-09-24T20:03:55;9.45;;;4.10;;
53115;SDS011;39010;48.088;7.954;2022-09-24T20:06:24;8.02;;;4.25;;
53115;SDS011;39010;48.088;7.954;2022-09-24T20:08:54;9.10;;;3.95;;
53115;SDS011;39010;48.088;7.954;2022-09-24T20:11:22;7.93;;;4.68;;
53115;SDS011;39010;48.088;7.954;2022-09-24T20:13:51;8.15;;;4.35;;
53115;SDS011;39010;48.088;7.954;2022-09-24T20:16:20;7.38;;;3.85;;
53115;SDS011;39010;48.088;7.954;2022-09-24T20:18:52;6.80;;;4.25;;
53115;SDS011;39010;48.088;7.954;2022-09-24T20:21:24;9.15;;;4.75;;
53115;SDS011;39010;48.088;7.954;2022-09-24T20:26:23;8.20;;;3.97;;
53115;SDS011;39010;48.088;7.954;2022-09-24T20:29:09;7.75;;;4.13;;
53115;SDS011;39010;48.088;7.954;2022-09-24T20:31:43;8.02;;;3.72;;
53115;SDS011;39010;48.088;7.954;2022-09-24T20:34:20;7.05;;;3.88;;
53115;SDS011;39010;48.088;7.954;2022-09-24T20:36:48;8.52;;;3.88;;
53115;SDS011;39010;48.088;7.954;2022-09-24T20:39:15;6.63;;;4.22;;
53115;SDS011;39010;48.088;7.954;2022-09-24T20:41:42;8.65;;;4.00;;
53115;SDS011;39010;48.088;7.954;2022-09-24T20:44:09;7.40;;;4.50;;
53115;SDS011;39010;48.088;7.954;2022-09-24T20:49:04;6.85;;;4.18;;
53115;SDS011;39010;48.088;7.954;2022-09-24T20:51:31;6.88;;;4.53;;
53115;SDS011;39010;48.088;7.954;2022-09-24T20:53:59;9.93;;;4.32;;
53115;SDS011;39010;48.088;7.954;2022-09-24T20:56:26;8.98;;;4.50;;
53115;SDS011;39010;48.088;7.954;2022-09-24T20:58:56;8.10;;;4.30;;
53115;SDS011;39010;48.088;7.954;2022-09-24T21:01:23;7.18;;;4.50;;
53115;SDS011;39010;48.088;7.954;2022-09-24T21:03:50;9.60;;;4.35;;
53115;SDS011;39010;48.088;7.954;2022-09-24T21:06:18;9.77;;;4.70;;
53115;SDS011;39010;48.088;7.954;2022-09-24T21:08:48;9.05;;;4.07;;
53115;SDS011;39010;48.088;7.954;2022-09-24T21:11:16;6.18;;;3.67;;
53115;SDS011;39010;48.088;7.954;2022-09-24T21:13:49;8.18;;;4.07;;
53115;SDS011;39010;48.088;7.954;2022-09-24T21:16:17;6.15;;;3.60;;
53115;SDS011;39010;48.088;7.954;2022-09-24T21:18:49;7.07;;;3.88;;
53115;SDS011;39010;48.088;7.954;2022-09-24T21:21:20;7.45;;;3.83;;
53115;SDS011;39010;48.088;7.954;2022-09-24T21:23:49;5.68;;;3.60;;
53115;SDS011;39010;48.088;7.954;2022-09-24T21:26:21;7.30;;;3.70;;
53115;SDS011;39010;48.088;7.954;2022-09-24T21:28:51;7.40;;;3.70;;
53115;SDS011;39010;48.088;7.954;2022-09-24T21:31:20;5.57;;;3.60;;
53115;SDS011;39010;48.088;7.954;2022-09-24T21:33:49;5.15;;;3.22;;
53115;SDS011;39010;48.088;7.954;2022-09-24T21:36:18;10.27;;;3.63;;
53115;SDS011;39010;48.088;7.954;2022-09-24T21:38:56;5.18;;;3.30;;
53115;SDS011;39010;48.088;7.954;2022-09-24T21:41:26;8.18;;;3.67;;
53115;SDS011;39010;48.088;7.954;2022-09-24T21:43:54;7.82;;;3.72;;
53115;SDS011;39010;48.088;7.954;2022-09-24T21:46:21;6.45;;;3.65;;
53115;SDS011;39010;48.088;7.954;2022-09-24T21:48:49;6.57;;;3.92;;
53115;SDS011;39010;48.088;7.954;2022-09-24T21:51:17;5.70;;;3.65;;
53115;SDS011;39010;48.088;7.954;2022-09-24T21:53:50;11.63;;;3.78;;
53115;SDS011;39010;48.088;7.954;2022-09-24T21:56:28;6.85;;;4.35;;
53115;SDS011;39010;48.088;7.954;2022-09-24T21:58:56;10.35;;;4.43;;
53115;SDS011;39010;48.088;7.954;2022-09-24T22:01:24;7.68;;;4.53;;
53115;SDS011;39010;48.088;7.954;2022-09-24T22:03:56;7.97;;;4.30;;
53115;SDS011;39010;48.088;7.954;2022-09-24T22:06:25;10.93;;;5.28;;
53115;SDS011;39010;48.088;7.954;2022-09-24T22:08:55;9.55;;;4.55;;
53115;SDS011;39010;48.088;7.954;2022-09-24T22:11:23;13.35;;;5.45;;
53115;SDS011;39010;48.088;7.954;2022-09-24T22:13:56;7.20;;;4.38;;
53115;SDS011;39010;48.088;7.954;2022-09-24T22:16:27;7.32;;;4.35;;
53115;SDS011;39010;48.088;7.954;2022-09-24T22:18:54;9.23;;;4.40;;
53115;SDS011;39010;48.088;7.954;2022-09-24T22:21:21;8.30;;;3.75;;
53115;SDS011;39010;48.088;7.954;2022-09-24T22:26:14;6.35;;;3.63;;
53115;SDS011;39010;48.088;7.954;2022-09-24T22:31:08;8.00;;;4.03;;
53115;SDS011;39010;48.088;7.954;2022-09-24T22:33:38;7.13;;;3.90;;
53115;SDS011;39010;48.088;7.954;2022-09-24T22:36:25;5.70;;;3.80;;
53115;SDS011;39010;48.088;7.954;2022-09-24T22:38:53;6.53;;;4.00;;
53115;SDS011;39010;48.088;7.954;2022-09-24T22:41:22;7.40;;;4.32;;
53115;SDS011;39010;48.088;7.954;2022-09-24T22:43:49;8.30;;;4.43;;
53115;SDS011;39010;48.088;7.954;2022-09-24T22:46:17;10.48;;;4.50;;
53115;SDS011;39010;48.088;7.954;2022-09-24T22:48:45;7.88;;;4.22;;
53115;SDS011;39010;48.088;7.954;2022-09-24T22:51:13;7.35;;;3.92;;
53115;SDS011;39010;48.088;7.954;2022-09-24T22:53:40;8.63;;;4.13;;
53115;SDS011;39010;48.088;7.954;2022-09-24T22:56:08;8.27;;;4.20;;
53115;SDS011;39010;48.088;7.954;2022-09-24T22:58:37;8.85;;;4.35;;
53115;SDS011;39010;48.088;7.954;2022-09-24T23:01:10;8.68;;;3.95;;
53115;SDS011;39010;48.088;7.954;2022-09-24T23:03:39;9.65;;;4.75;;
53115;SDS011;39010;48.088;7.954;2022-09-24T23:06:06;7.75;;;3.97;;
53115;SDS011;39010;48.088;7.954;2022-09-24T23:08:34;7.40;;;3.95;;
53115;SDS011;39010;48.088;7.954;2022-09-24T23:13:32;5.68;;;3.75;;
53115;SDS011;39010;48.088;7.954;2022-09-24T23:16:18;8.25;;;3.83;;
53115;SDS011;39010;48.088;7.954;2022-09-24T23:18:47;8.35;;;3.83;;
53115;SDS011;39010;48.088;7.954;2022-09-24T23:21:16;5.70;;;3.67;;
53115;SDS011;39010;48.088;7.954;2022-09-24T23:23:45;5.97;;;3.55;;
53115;SDS011;39010;48.088;7.954;2022-09-24T23:26:13;6.93;;;3.88;;
53115;SDS011;39010;48.088;7.954;2022-09-24T23:28:44;8.73;;;4.53;;
53115;SDS011;39010;48.088;7.954;2022-09-24T23:31:12;7.78;;;5.05;;
53115;SDS011;39010;48.088;7.954;2022-09-24T23:33:40;9.25;;;4.07;;
53115;SDS011;39010;48.088;7.954;2022-09-24T23:36:08;7.13;;;3.95;;
53115;SDS011;39010;48.088;7.954;2022-09-24T23:38:36;7.18;;;3.95;;
53115;SDS011;39010;48.088;7.954;2022-09-24T23:41:04;6.72;;;3.92;;
53115;SDS011;39010;48.088;7.954;2022-09-24T23:43:31;8.45;;;4.22;;
53115;SDS011;39010;48.088;7.954;2022-09-24T23:45:58;7.80;;;3.90;;
53115;SDS011;39010;48.088;7.954;2022-09-24T23:48:26;6.10;;;3.85;;
53115;SDS011;39010;48.088;7.954;2022-09-24T23:50:53;6.47;;;3.78;;
53115;SDS011;39010;48.088;7.954;2022-09-24T23:53:20;8.32;;;4.10;;
53115;SDS011;39010;48.088;7.954;2022-09-24T23:55:47;7.90;;;4.20;;
53115;SDS011;39010;48.088;7.954;2022-09-24T23:58:15;10.40;;;3.95;;
